Bitflower — SBJE — position and weather

sailwx.info

Track history (hours):
 
Tides and Currents Weather Stations Pressure Air Temp Water Temp Dewpoint Dewpoint Depression Visibility Wind Speed Wind Dir Waves Ship Positions

Bitflower

Last reported at 2016-Sep-24 22:11 UTC. Time now 2016-Sep-26 03:43 UTC.
Position N 49°48' W 003°25'.

Length 116 m; draft 6.7 m.

Type: Tanker. MMSI: 266009000.

Date/timePositionNaut miles runAvg speedWind from/ knotsBaromVisibWave heightAir tempDewpointWater temp
2016-Sep-24 22:11N 49°48' W 003°25'812.4
2016-Sep-24 21:32N 49°52' W 003°14'7513.7
2016-Sep-24 16:03N 50°16' W 001°22'1711.6
2016-Sep-24 14:33N 50°20' W 000°56'2311.4
2016-Sep-24 12:33N 50°27' W 000°22'2613.1
2016-Sep-24 10:33N 50°34' E 000°18'8612.2
2016-Sep-24 03:33N 51°30' E 002°01'1514.3
2016-Sep-24 02:32N 51°41' E 002°17'7811.1
2016-Sep-23 19:33N 51°53' E 004°21'0 0.0
2016-Sep-23 17:34N 51°53' E 004°21'0 0.0
2016-Sep-23 16:33N 51°53' E 004°21'0 0.0
2016-Sep-23 15:33N 51°53' E 004°21'0 0.0
2016-Sep-23 13:34N 51°53' E 004°21'0 0.0
2016-Sep-23 09:33N 51°53' E 004°21'0 0.0
2016-Sep-23 06:33N 51°53' E 004°21'0 0.0
2016-Sep-23 04:33N 51°53' E 004°21'0 0.0
2016-Sep-23 03:33N 51°53' E 004°21'0 0.0
2016-Sep-23 02:33N 51°53' E 004°21'0 0.0
2016-Sep-23 01:33N 51°53' E 004°21'0 0.0
2016-Sep-23 00:34N 51°53' E 004°21'0 0.0
2016-Sep-22 23:33N 51°53' E 004°21'0 0.0
2016-Sep-22 20:33N 51°53' E 004°21'31611.3
2016-Sep-21 16:33N 49°50' W 003°19'27210.0
2016-Sep-20 13:23N 54°12' W 005°18'3411.9
2016-Sep-20 10:33N 54°42' W 005°42'8 0.4
2016-Sep-19 12:31N 54°38' W 005°53'8 8.8
2016-Sep-19 11:33N 54°43' W 005°42'0 0.2
2016-Sep-19 09:32N 54°44' W 005°42'3 1.4
2016-Sep-19 07:33N 54°43' W 005°37'9 9.0
2016-Sep-19 06:33N 54°38' W 005°25'3812.7
2016-Sep-19 03:32N 54°00' W 005°35'  
Track history (hours):
 
Tides and Currents Weather Stations Pressure Air Temp Water Temp Dewpoint Dewpoint Depression Visibility Wind Speed Wind Dir Waves Ship Positions

Bitflower

Last reported at 2016-Sep-24 22:11 UTC. Time now 2016-Sep-26 03:43 UTC.
Position N 49°48' W 003°25'.

Length 116 m; draft 6.7 m.

Type: Tanker. MMSI: 266009000.

Date/timePositionNaut miles runAvg speedWind from/ knotsBaromVisibWave heightAir tempDewpointWater temp
2016-Sep-24 22:11N 49°48' W 003°25'812.4
2016-Sep-24 21:32N 49°52' W 003°14'7513.7
2016-Sep-24 16:03N 50°16' W 001°22'1711.6
2016-Sep-24 14:33N 50°20' W 000°56'2311.4
2016-Sep-24 12:33N 50°27' W 000°22'2613.1
2016-Sep-24 10:33N 50°34' E 000°18'8612.2
2016-Sep-24 03:33N 51°30' E 002°01'1514.3
2016-Sep-24 02:32N 51°41' E 002°17'7811.1
2016-Sep-23 19:33N 51°53' E 004°21'0 0.0
2016-Sep-23 17:34N 51°53' E 004°21'0 0.0
2016-Sep-23 16:33N 51°53' E 004°21'0 0.0
2016-Sep-23 15:33N 51°53' E 004°21'0 0.0
2016-Sep-23 13:34N 51°53' E 004°21'0 0.0
2016-Sep-23 09:33N 51°53' E 004°21'0 0.0
2016-Sep-23 06:33N 51°53' E 004°21'0 0.0
2016-Sep-23 04:33N 51°53' E 004°21'0 0.0
2016-Sep-23 03:33N 51°53' E 004°21'0 0.0
2016-Sep-23 02:33N 51°53' E 004°21'0 0.0
2016-Sep-23 01:33N 51°53' E 004°21'0 0.0
2016-Sep-23 00:34N 51°53' E 004°21'0 0.0
2016-Sep-22 23:33N 51°53' E 004°21'0 0.0
2016-Sep-22 20:33N 51°53' E 004°21'31611.3
2016-Sep-21 16:33N 49°50' W 003°19'27210.0
2016-Sep-20 13:23N 54°12' W 005°18'3411.9
2016-Sep-20 10:33N 54°42' W 005°42'8 0.4
2016-Sep-19 12:31N 54°38' W 005°53'8 8.8
2016-Sep-19 11:33N 54°43' W 005°42'0 0.2
2016-Sep-19 09:32N 54°44' W 005°42'3 1.4
2016-Sep-19 07:33N 54°43' W 005°37'9 9.0
2016-Sep-19 06:33N 54°38' W 005°25'3812.7
2016-Sep-19 03:32N 54°00' W 005°35'  

Dump ship's entire track history